Time;durP1;ratioP1;P1;durP2;ratioP2;P2;SDS_P1;SDS_P2;PMS_P1;PMS_P2;Temp;Humidity;BMP_temperature;BMP_pressure;BME280_temperature;BME280_humidity;BME280_pressure;Samples;Min_cycle;Max_cycle;Signal;HPM_P1;HPM_P2
2023/08/27 00:01:54;;;;;;;8.35;7.32;;;;;;;21.69;100.00;99134.50;4844819;29;20116;-92
2023/08/27 00:04:19;;;;;;;10.10;8.02;;;;;;;21.78;100.00;99153.94;4845126;29;20029;-93
2023/08/27 00:06:45;;;;;;;9.93;8.20;;;;;;;21.80;100.00;99165.22;4844984;29;20029;-92
2023/08/27 00:09:10;;;;;;;9.18;8.30;;;;;;;21.77;100.00;99153.09;4844738;29;20197;-93
2023/08/27 00:11:36;;;;;;;10.63;9.48;;;;;;;21.74;100.00;99152.59;4860385;29;20029;-92
2023/08/27 00:14:02;;;;;;;10.50;8.20;;;;;;;21.82;100.00;99160.59;4875649;29;20033;-92
2023/08/27 00:16:28;;;;;;;9.20;8.30;;;;;;;21.71;100.00;99144.97;4860454;29;20111;-93
2023/08/27 00:18:53;;;;;;;11.10;8.70;;;;;;;21.78;100.00;99156.59;4840281;29;20128;-92
2023/08/27 00:21:19;;;;;;;10.40;8.68;;;;;;;21.78;100.00;99160.06;4825166;29;20064;-92
2023/08/27 00:23:44;;;;;;;17.25;9.35;;;;;;;21.76;100.00;99158.56;4840437;29;20042;-92
2023/08/27 00:26:09;;;;;;;9.45;8.45;;;;;;;21.70;100.00;99154.75;4840244;29;20041;-92
2023/08/27 00:28:35;;;;;;;9.52;8.52;;;;;;;21.73;100.00;99167.66;4825172;29;20045;-91
2023/08/27 00:31:04;;;;;;;9.52;8.30;;;;;;;21.68;100.00;99157.53;4840252;29;20522;-91
2023/08/27 00:33:30;;;;;;;8.95;8.05;;;;;;;21.78;100.00;99165.38;4840409;29;20478;-92
2023/08/27 00:35:55;;;;;;;10.88;8.77;;;;;;;21.75;100.00;99171.00;4824773;29;20058;-92
2023/08/27 00:38:21;;;;;;;9.38;8.07;;;;;;;21.73;100.00;99172.13;4840234;29;20038;-92
2023/08/27 00:40:46;;;;;;;10.50;9.48;;;;;;;21.68;100.00;99175.25;4824920;29;20140;-92
2023/08/27 00:43:12;;;;;;;14.05;12.13;;;;;;;21.69;100.00;99171.59;4839796;29;20041;-91
2023/08/27 00:45:37;;;;;;;12.85;11.52;;;;;;;21.68;100.00;99169.94;4824910;29;20588;-92
2023/08/27 00:48:03;;;;;;;10.25;9.25;;;;;;;21.64;100.00;99158.00;4824620;29;20026;-92
2023/08/27 00:50:30;;;;;;;10.02;8.57;;;;;;;21.70;100.00;99164.47;4843821;29;20040;-92
2023/08/27 00:52:56;;;;;;;9.18;7.80;;;;;;;21.67;100.00;99168.28;4859523;29;20121;-92
2023/08/27 00:55:22;;;;;;;8.38;7.20;;;;;;;21.61;100.00;99167.06;4859673;29;20557;-91
2023/08/27 00:57:49;;;;;;;8.50;7.60;;;;;;;21.59;100.00;99165.56;4859476;29;20037;-92
2023/08/27 01:00:15;;;;;;;8.45;7.43;;;;;;;21.56;100.00;99169.34;4843975;29;20497;-91
2023/08/27 01:02:42;;;;;;;9.30;7.75;;;;;;;21.49;100.00;99154.22;4844033;29;20033;-92
2023/08/27 01:05:08;;;;;;;8.07;7.38;;;;;;;21.51;100.00;99150.44;4843709;29;20047;-92
2023/08/27 01:08:01;;;;;;;8.02;7.25;;;;;;;21.46;100.00;99154.53;4844032;29;20466;-91
2023/08/27 01:10:52;;;;;;;8.02;7.18;;;;;;;21.29;100.00;99137.66;4859392;29;20057;-91
2023/08/27 01:13:25;;;;;;;;;;;;;;;21.40;100.00;99164.75;4788507;29;20070;-91
2023/08/27 01:16:00;;;;;;;9.32;7.00;;;;;;;21.29;100.00;99146.41;4788248;29;19950;-92
2023/08/27 01:18:27;;;;;;;6.97;5.88;;;;;;;21.31;100.00;99148.91;4788157;29;20049;-91
2023/08/27 01:20:53;;;;;;;12.27;7.80;;;;;;;21.23;100.00;99128.47;4788116;29;20143;-92
2023/08/27 01:23:18;;;;;;;8.43;6.93;;;;;;;21.34;100.00;99140.69;4802838;29;20117;-92
2023/08/27 01:25:50;;;;;;;9.20;7.57;;;;;;;21.26;100.00;99128.16;4803056;29;20084;-92
2023/08/27 01:28:42;;;;;;;10.95;8.23;;;;;;;21.07;100.00;99117.72;4803010;29;20031;-92
2023/08/27 01:31:14;;;;;;;9.02;7.85;;;;;;;20.97;100.00;99101.09;4802647;29;20038;-92
2023/08/27 01:33:40;;;;;;;7.90;7.15;;;;;;;20.89;100.00;99097.38;4803274;29;20441;-91
2023/08/27 01:36:07;;;;;;;10.32;8.60;;;;;;;20.78;100.00;99094.13;4802605;29;20031;-92
2023/08/27 01:38:33;;;;;;;8.65;6.82;;;;;;;20.77;100.00;99097.75;4802854;29;20026;-92
2023/08/27 01:40:58;;;;;;;7.82;7.03;;;;;;;20.79;100.00;99109.84;4802617;29;20035;-92
2023/08/27 01:43:24;;;;;;;11.32;6.95;;;;;;;20.85;100.00;99117.19;4802804;29;20045;-92
2023/08/27 01:45:50;;;;;;;10.02;6.90;;;;;;;20.90;100.00;99128.19;4803079;29;20035;-92
2023/08/27 01:48:15;;;;;;;9.48;7.32;;;;;;;20.85;100.00;99117.19;4802652;29;20035;-92
2023/08/27 01:50:40;;;;;;;7.85;6.47;;;;;;;20.83;100.00;99120.97;4844103;29;20128;-92
2023/08/27 01:53:06;;;;;;;9.45;6.72;;;;;;;20.93;100.00;99135.81;4842821;29;20108;-92
2023/08/27 01:55:31;;;;;;;8.68;6.60;;;;;;;20.89;100.00;99126.50;4843175;29;20048;-92
2023/08/27 01:57:56;;;;;;;10.50;7.28;;;;;;;20.94;100.00;99126.03;4843075;29;20034;-92
2023/08/27 02:00:22;;;;;;;7.65;6.72;;;;;;;20.90;100.00;99117.59;4843279;29;20026;-92
2023/08/27 02:02:47;;;;;;;8.23;7.00;;;;;;;20.92;100.00;99120.91;4843163;29;20415;-92
2023/08/27 02:05:13;;;;;;;9.05;6.35;;;;;;;20.91;100.00;99118.41;4842913;29;20125;-92
2023/08/27 02:07:40;;;;;;;9.23;6.57;;;;;;;20.81;100.00;99091.16;4842892;29;20148;-92
2023/08/27 02:10:06;;;;;;;7.25;6.47;;;;;;;20.91;100.00;99107.84;4843030;29;20518;-92
2023/08/27 02:12:32;;;;;;;8.25;6.55;;;;;;;20.89;100.00;99112.44;4858435;29;20093;-92
2023/08/27 02:14:58;;;;;;;8.68;7.05;;;;;;;20.73;100.00;99096.38;4858123;29;20029;-92
2023/08/27 02:17:23;;;;;;;10.07;7.18;;;;;;;20.70;100.00;99086.13;4859615;29;20037;-92
2023/08/27 02:19:49;;;;;;;9.27;7.05;;;;;;;20.73;100.00;99109.63;4843019;29;20063;-92
2023/08/27 02:22:14;;;;;;;7.82;6.15;;;;;;;20.66;100.00;99104.94;4858083;29;20397;-92
2023/08/27 02:24:39;;;;;;;8.30;6.82;;;;;;;20.68;100.00;99108.25;4843183;29;20069;-92
2023/08/27 02:27:05;;;;;;;8.15;7.07;;;;;;;20.62;100.00;99102.72;4858265;29;20374;-92
2023/08/27 02:29:30;;;;;;;7.22;6.28;;;;;;;20.70;100.00;99118.69;4843150;29;20025;-92
2023/08/27 02:31:56;;;;;;;9.65;6.95;;;;;;;20.63;100.00;99112.31;4858254;29;20026;-91
2023/08/27 02:34:21;;;;;;;9.43;6.82;;;;;;;20.64;100.00;99108.69;4858117;29;20026;-92
2023/08/27 02:36:46;;;;;;;7.15;6.10;;;;;;;20.71;100.00;99124.81;4859679;29;20033;-91
2023/08/27 02:39:12;;;;;;;9.73;7.43;;;;;;;20.57;100.00;99091.78;4842853;29;20057;-92
2023/08/27 02:41:37;;;;;;;9.50;7.20;;;;;;;20.64;100.00;99104.22;4858180;29;20442;-92
2023/08/27 02:44:03;;;;;;;11.68;7.82;;;;;;;20.60;100.00;99104.69;4842676;29;20027;-92
2023/08/27 02:46:28;;;;;;;8.68;7.03;;;;;;;20.58;100.00;99111.94;4842821;29;20029;-92
2023/08/27 02:48:54;;;;;;;10.55;7.75;;;;;;;20.45;100.00;99099.03;4859478;29;20036;-92
2023/08/27 02:51:19;;;;;;;7.88;7.05;;;;;;;20.62;100.00;99129.19;4857751;29;20076;-92
2023/08/27 02:53:45;;;;;;;8.88;7.30;;;;;;;20.55;100.00;99121.00;4858271;29;20029;-92
2023/08/27 02:56:10;;;;;;;9.32;8.43;;;;;;;20.57;100.00;99127.00;4842542;29;20033;-92
2023/08/27 02:58:36;;;;;;;9.45;7.32;;;;;;;20.52;100.00;99142.47;4858172;29;20036;-92
2023/08/27 03:01:01;;;;;;;10.20;7.38;;;;;;;20.44;100.00;99137.06;4857906;29;20038;-92
2023/08/27 03:03:26;;;;;;;9.32;7.78;;;;;;;20.35;100.00;99137.91;4858068;29;20022;-91
2023/08/27 03:05:52;;;;;;;11.00;8.30;;;;;;;20.32;100.00;99141.69;4844727;29;20036;-92
2023/08/27 03:08:17;;;;;;;11.38;8.15;;;;;;;20.23;100.00;99131.19;4861345;29;20545;-92
2023/08/27 03:10:42;;;;;;;9.07;7.70;;;;;;;20.28;100.00;99142.16;4846121;29;20113;-91
2023/08/27 03:13:08;;;;;;;10.50;7.38;;;;;;;20.26;100.00;99136.97;4845815;29;20029;-92
2023/08/27 03:15:33;;;;;;;10.80;8.00;;;;;;;20.29;100.00;99139.34;4862612;29;20113;-92
2023/08/27 03:17:59;;;;;;;10.95;8.73;;;;;;;20.28;100.00;99131.56;4845800;29;20097;-92
2023/08/27 03:20:24;;;;;;;10.82;9.73;;;;;;;20.24;100.00;99140.78;4845606;29;20060;-92
2023/08/27 03:22:49;;;;;;;11.25;8.80;;;;;;;19.99;100.00;99121.94;4861380;29;20029;-91
2023/08/27 03:25:15;;;;;;;13.88;9.73;;;;;;;19.98;100.00;99122.09;4861103;29;20029;-91
2023/08/27 03:27:40;;;;;;;13.55;9.93;;;;;;;19.91;100.00;99135.03;4845868;29;20037;-91
2023/08/27 03:30:06;;;;;;;10.02;8.80;;;;;;;19.75;100.00;99119.75;4845542;29;20085;-92
2023/08/27 03:32:32;;;;;;;16.33;11.07;;;;;;;19.88;100.00;99133.50;4845614;29;20026;-91
2023/08/27 03:34:57;;;;;;;10.93;9.82;;;;;;;19.79;100.00;99128.25;4845544;29;20022;-91
2023/08/27 03:37:22;;;;;;;13.20;8.88;;;;;;;19.75;100.00;99129.50;4862434;29;20041;-91
2023/08/27 03:39:48;;;;;;;12.02;10.52;;;;;;;19.77;100.00;99140.78;4876362;29;20031;-91
2023/08/27 03:42:13;;;;;;;10.27;9.27;;;;;;;19.68;100.00;99129.25;4845437;29;20033;-91
2023/08/27 03:44:39;;;;;;;11.82;9.55;;;;;;;19.72;100.00;99141.22;4845464;29;20021;-92
2023/08/27 03:47:04;;;;;;;12.45;8.95;;;;;;;19.73;100.00;99136.75;4862067;29;20033;-91
2023/08/27 03:49:30;;;;;;;14.70;9.35;;;;;;;19.70;100.00;99129.94;4860688;29;20025;-91
2023/08/27 03:51:56;;;;;;;13.00;8.73;;;;;;;19.73;100.00;99129.66;4845387;29;20029;-92
2023/08/27 03:54:21;;;;;;;13.55;9.73;;;;;;;19.67;100.00;99106.44;4845250;29;20120;-92
2023/08/27 03:56:46;;;;;;;11.27;9.85;;;;;;;19.73;100.00;99121.72;4860630;29;20465;-91
2023/08/27 03:59:12;;;;;;;12.00;10.23;;;;;;;19.72;100.00;99122.72;4845099;29;20026;-91
2023/08/27 04:01:37;;;;;;;14.93;9.85;;;;;;;19.68;100.00;99106.31;4845233;29;20079;-91
2023/08/27 04:04:03;;;;;;;11.13;9.82;;;;;;;19.67;100.00;99098.50;4845104;29;20032;-91
2023/08/27 04:06:29;;;;;;;10.45;9.32;;;;;;;19.57;100.00;99081.81;4850296;29;20499;-91
2023/08/27 04:08:54;;;;;;;10.48;9.38;;;;;;;19.45;100.00;99068.78;4841987;29;20106;-91
2023/08/27 04:11:19;;;;;;;13.27;9.52;;;;;;;19.48;100.00;99078.22;4826335;29;20033;-91
2023/08/27 04:13:45;;;;;;;13.65;9.68;;;;;;;19.43;100.00;99080.47;4826592;29;20125;-91
2023/08/27 04:16:11;;;;;;;13.65;9.68;;;;;;;19.44;100.00;99084.75;4826198;29;20056;-92
2023/08/27 04:18:37;;;;;;;13.18;9.45;;;;;;;19.52;100.00;99095.47;4826070;29;20037;-90
2023/08/27 04:21:03;;;;;;;10.75;9.32;;;;;;;19.40;100.00;99078.09;4826772;29;20355;-91
2023/08/27 04:23:29;;;;;;;10.43;9.32;;;;;;;19.39;100.00;99068.53;4841760;29;20026;-92
2023/08/27 04:25:55;;;;;;;9.43;8.52;;;;;;;19.40;100.00;99076.28;4826673;29;20033;-91
2023/08/27 04:28:21;;;;;;;11.73;9.18;;;;;;;19.42;100.00;99084.06;4841420;29;20034;-91
2023/08/27 04:30:48;;;;;;;9.10;8.20;;;;;;;19.14;100.00;99039.09;4856985;29;20030;-91
2023/08/27 04:33:14;;;;;;;14.52;10.40;;;;;;;19.42;100.00;99087.56;4825937;29;20125;-91
2023/08/27 04:35:39;;;;;;;10.35;9.27;;;;;;;19.43;100.00;99105.06;4826505;29;20029;-91
2023/08/27 04:38:06;;;;;;;16.52;9.63;;;;;;;19.29;100.00;99083.53;4826465;29;20382;-91
2023/08/27 04:40:31;;;;;;;9.95;8.95;;;;;;;19.20;100.00;99077.28;4826229;29;20040;-91
2023/08/27 04:42:58;;;;;;;8.88;8.05;;;;;;;19.28;100.00;99087.16;4826193;29;20026;-91
2023/08/27 04:45:23;;;;;;;12.23;10.18;;;;;;;19.20;100.00;99074.63;4825983;29;20025;-91
2023/08/27 04:47:48;;;;;;;9.52;8.48;;;;;;;19.21;100.00;99084.22;4826025;29;20125;-91
2023/08/27 04:50:14;;;;;;;9.93;9.00;;;;;;;19.16;100.00;99073.25;4841214;29;20369;-91
2023/08/27 04:52:39;;;;;;;12.68;8.75;;;;;;;19.20;100.00;99079.91;4825943;29;20025;-91
2023/08/27 04:55:06;;;;;;;9.90;8.70;;;;;;;19.19;100.00;99092.28;4856657;29;20082;-91
2023/08/27 04:57:35;;;;;;;10.98;8.75;;;;;;;19.24;100.00;99085.75;4825688;29;20034;-91
2023/08/27 05:00:09;;;;;;;8.05;7.32;;;;;;;19.24;100.00;99083.13;4825978;29;20030;-91
2023/08/27 05:02:35;;;;;;;8.18;7.35;;;;;;;19.28;100.00;99079.22;4840860;29;20435;-91
2023/08/27 05:05:00;;;;;;;10.18;7.75;;;;;;;19.30;100.00;99072.84;4826054;29;20466;-91
2023/08/27 05:07:26;;;;;;;12.20;7.97;;;;;;;19.10;100.00;99040.34;4827519;29;20086;-92
2023/08/27 05:09:51;;;;;;;8.32;7.55;;;;;;;19.34;100.00;99083.94;4860626;29;20025;-91
2023/08/27 05:12:17;;;;;;;7.53;6.72;;;;;;;19.38;100.00;99094.09;4843613;29;20026;-92
2023/08/27 05:14:42;;;;;;;7.90;7.15;;;;;;;19.38;100.00;99082.66;4843948;29;20124;-91
2023/08/27 05:17:08;;;;;;;6.97;6.38;;;;;;;19.36;100.00;99076.72;4843739;29;20029;-91
2023/08/27 05:19:33;;;;;;;10.95;7.60;;;;;;;19.50;100.00;99096.56;4843820;29;20108;-92
2023/08/27 05:22:00;;;;;;;6.53;5.88;;;;;;;19.49;100.00;99089.63;4843925;29;20085;-92
2023/08/27 05:24:26;;;;;;;9.18;7.60;;;;;;;19.44;100.00;99095.34;4860460;29;20029;-92
2023/08/27 05:26:51;;;;;;;7.97;7.18;;;;;;;19.37;100.00;99087.13;4843808;29;20462;-91
2023/08/27 05:29:16;;;;;;;8.68;6.35;;;;;;;19.47;100.00;99104.75;4842682;29;20026;-91
2023/08/27 05:31:42;;;;;;;9.70;7.30;;;;;;;19.36;100.00;99087.28;4843556;29;20457;-91
2023/08/27 05:34:07;;;;;;;10.52;6.90;;;;;;;19.40;100.00;99089.50;4843837;29;20616;-91
2023/08/27 05:36:32;;;;;;;9.02;7.55;;;;;;;19.43;100.00;99088.38;4860348;29;20437;-91
2023/08/27 05:38:58;;;;;;;8.00;7.13;;;;;;;19.43;100.00;99076.00;4843642;29;20025;-91
2023/08/27 05:41:23;;;;;;;9.00;7.97;;;;;;;19.39;100.00;99057.97;4843514;29;20120;-91
2023/08/27 05:43:49;;;;;;;7.72;6.97;;;;;;;19.47;100.00;99052.78;4843607;29;20513;-91
2023/08/27 05:46:14;;;;;;;7.65;6.88;;;;;;;19.69;100.00;99067.50;4843179;29;20398;-90
2023/08/27 05:48:40;;;;;;;8.10;7.40;;;;;;;19.72;100.00;99056.66;4843550;29;20021;-91
2023/08/27 05:51:05;;;;;;;9.75;8.70;;;;;;;19.77;100.00;99051.75;4860295;29;20038;-91
2023/08/27 05:53:31;;;;;;;11.85;9.95;;;;;;;19.78;100.00;99047.31;4843190;29;20037;-91
2023/08/27 05:55:56;;;;;;;10.07;9.02;;;;;;;19.72;100.00;99045.22;4843181;29;20386;-91
2023/08/27 05:58:22;;;;;;;11.27;8.10;;;;;;;19.80;100.00;99040.88;4843093;29;20037;-91
2023/08/27 06:00:52;;;;;;;9.38;7.30;;;;;;;19.92;100.00;99052.09;4843176;29;20048;-91
2023/08/27 06:03:18;;;;;;;8.13;7.13;;;;;;;20.03;100.00;99037.88;4843048;29;20054;-91
2023/08/27 06:05:43;;;;;;;8.60;7.00;;;;;;;20.23;100.00;99054.50;4843387;29;20033;-91
2023/08/27 06:08:09;;;;;;;7.28;6.57;;;;;;;20.22;100.00;99035.13;4842971;29;20056;-91
2023/08/27 06:10:35;;;;;;;8.27;7.47;;;;;;;20.40;100.00;99045.75;4842888;29;20032;-91
2023/08/27 06:13:00;;;;;;;12.50;8.77;;;;;;;20.43;100.00;99045.44;4843094;29;20055;-91
2023/08/27 06:15:29;;;;;;;9.63;8.25;;;;;;;20.46;100.00;99039.84;4842723;29;20029;-91
2023/08/27 06:17:54;;;;;;;9.80;7.45;;;;;;;20.55;100.00;99054.84;4862471;29;20043;-91
2023/08/27 06:20:20;;;;;;;9.68;8.55;;;;;;;20.42;100.00;99036.66;4876874;29;20470;-91
2023/08/27 06:22:46;;;;;;;10.88;8.43;;;;;;;20.43;100.00;99050.72;4877011;29;20033;-91
2023/08/27 06:25:11;;;;;;;8.25;7.30;;;;;;;20.44;100.00;99041.84;4861547;29;20029;-92
2023/08/27 06:27:37;;;;;;;11.68;8.15;;;;;;;20.51;100.00;99050.03;4861211;29;20037;-91
2023/08/27 06:30:04;;;;;;;8.15;7.35;;;;;;;20.49;100.00;99031.66;4861290;29;20029;-91
2023/08/27 06:32:29;;;;;;;9.93;8.93;;;;;;;20.54;100.00;99031.22;4876587;29;20437;-92
2023/08/27 06:34:55;;;;;;;10.30;8.60;;;;;;;20.55;100.00;99039.00;4861407;29;20116;-91
2023/08/27 06:37:20;;;;;;;10.15;8.73;;;;;;;20.62;100.00;99044.53;4861041;29;20056;-92
2023/08/27 06:39:45;;;;;;;11.82;8.55;;;;;;;20.62;100.00;99031.28;4892937;29;20039;-91
2023/08/27 06:42:12;;;;;;;11.35;9.60;;;;;;;20.72;100.00;99044.44;4865004;29;20037;-89
2023/08/27 06:44:56;;;;;;;9.48;8.48;;;;;;;20.62;100.00;99023.34;4842265;29;20036;-91
2023/08/27 06:47:22;;;;;;;9.20;8.30;;;;;;;20.54;100.00;99005.59;4842275;29;20225;-91
2023/08/27 06:49:50;;;;;;;11.32;9.20;;;;;;;20.63;100.00;99006.50;4826737;29;20046;-92
2023/08/27 06:52:15;;;;;;;9.35;8.45;;;;;;;20.60;100.00;98991.75;4826394;29;20034;-91
2023/08/27 06:54:40;;;;;;;10.43;8.02;;;;;;;20.83;100.00;98994.78;4841929;29;20045;-91
2023/08/27 06:57:06;;;;;;;10.27;9.27;;;;;;;21.16;100.00;98995.84;4826517;29;20629;-91
2023/08/27 06:59:31;;;;;;;9.70;8.32;;;;;;;21.59;100.00;99022.47;4841686;29;20038;-91
2023/08/27 07:01:57;;;;;;;9.25;8.10;;;;;;;21.76;100.00;99002.19;4835377;29;20042;-89
2023/08/27 07:04:23;;;;;;;11.50;8.23;;;;;;;21.76;100.00;98989.75;4807395;29;20168;-89
2023/08/27 07:06:48;;;;;;;10.10;7.55;;;;;;;21.85;100.00;98990.63;4805098;29;20066;-91
2023/08/27 07:09:14;;;;;;;8.10;7.30;;;;;;;21.94;100.00;98992.31;4810977;29;20090;-92
2023/08/27 07:11:39;;;;;;;15.00;7.85;;;;;;;22.07;100.00;98973.28;4809982;29;20042;-89
2023/08/27 07:14:04;;;;;;;8.32;7.53;;;;;;;22.24;100.00;98987.47;4787491;29;20063;-89
2023/08/27 07:16:30;;;;;;;8.82;8.02;;;;;;;22.34;100.00;98988.16;4779852;29;20050;-90
2023/08/27 07:18:55;;;;;;;8.15;7.35;;;;;;;22.48;100.00;98987.50;4797331;29;20039;-90
2023/08/27 07:21:21;;;;;;;8.27;7.50;;;;;;;22.48;100.00;98987.50;4797676;29;20074;-90
2023/08/27 07:23:46;;;;;;;9.35;7.25;;;;;;;22.67;100.00;98976.59;4801343;29;20043;-89
2023/08/27 07:26:11;;;;;;;9.52;7.97;;;;;;;22.69;100.00;98971.13;4794460;29;20220;-90
2023/08/27 07:28:37;;;;;;;7.35;6.65;;;;;;;22.75;100.00;98983.72;4798957;29;20043;-90
2023/08/27 07:31:04;;;;;;;8.85;6.80;;;;;;;22.91;100.00;98974.97;4802781;29;20038;-90
2023/08/27 07:33:29;;;;;;;9.10;7.05;;;;;;;22.94;100.00;98977.28;4797976;29;20039;-89
2023/08/27 07:35:55;;;;;;;8.52;7.03;;;;;;;23.01;100.00;98986.25;4806931;29;20458;-91
2023/08/27 07:38:22;;;;;;;9.05;6.93;;;;;;;22.98;100.00;98991.06;4799124;29;20391;-91
2023/08/27 07:40:47;;;;;;;10.10;7.05;;;;;;;22.88;100.00;99000.00;4807036;29;20534;-90
2023/08/27 07:43:13;;;;;;;8.52;7.00;;;;;;;22.92;100.00;98989.88;4804865;29;20083;-90
2023/08/27 07:45:39;;;;;;;9.18;6.70;;;;;;;23.01;100.00;98991.56;4831919;29;20534;-90
2023/08/27 07:48:04;;;;;;;6.68;6.07;;;;;;;23.16;100.00;98989.03;4832899;29;20026;-90
2023/08/27 07:50:30;;;;;;;6.63;5.95;;;;;;;23.33;100.00;99005.78;4833466;29;20023;-90
2023/08/27 07:52:55;;;;;;;5.63;5.13;;;;;;;23.47;100.00;99017.56;4830788;29;20054;-90
2023/08/27 07:55:21;;;;;;;9.98;7.03;;;;;;;22.97;100.00;98926.50;4832727;29;20053;-92
2023/08/27 07:57:47;;;;;;;7.47;6.78;;;;;;;23.40;100.00;99004.13;4833276;29;20030;-90
2023/08/27 08:00:15;;;;;;;8.77;6.68;;;;;;;23.34;100.00;99020.72;4831821;29;20190;-90
2023/08/27 08:02:41;;;;;;;7.47;6.43;;;;;;;23.19;100.00;99017.13;4832790;29;20021;-90
2023/08/27 08:05:07;;;;;;;8.95;6.30;;;;;;;23.18;100.00;99036.72;4831726;29;20042;-90
2023/08/27 08:07:34;;;;;;;8.20;6.65;;;;;;;23.00;100.00;99023.59;4820083;29;20434;-91
2023/08/27 08:10:00;;;;;;;11.57;7.22;;;;;;;22.85;100.00;99013.59;4858911;29;20144;-93
2023/08/27 08:12:45;;;;;;;7.40;6.70;;;;;;;22.81;100.00;99028.19;4826376;29;20529;-91
2023/08/27 08:15:11;;;;;;;7.30;5.82;;;;;;;22.75;100.00;99010.25;4840432;29;20069;-91
2023/08/27 08:17:36;;;;;;;6.72;6.00;;;;;;;22.80;100.00;99015.09;4840415;29;20129;-91
2023/08/27 08:20:02;;;;;;;6.03;5.35;;;;;;;22.97;100.00;99035.38;4824392;29;20033;-92
2023/08/27 08:22:28;;;;;;;7.18;6.30;;;;;;;23.11;100.00;99040.03;4824050;29;20045;-91
2023/08/27 08:24:54;;;;;;;6.70;6.10;;;;;;;23.27;100.00;99030.38;4803277;29;20038;-90
2023/08/27 08:27:19;;;;;;;7.50;6.20;;;;;;;23.50;100.00;99025.19;4787883;29;20139;-91
2023/08/27 08:29:45;;;;;;;6.78;5.72;;;;;;;23.65;100.00;99035.00;4785616;29;20538;-90
2023/08/27 08:32:10;;;;;;;6.25;5.65;;;;;;;23.73;100.00;99028.00;4787894;29;20035;-92
2023/08/27 08:34:35;;;;;;;6.82;5.93;;;;;;;23.77;100.00;99021.34;4788854;29;20121;-91
2023/08/27 08:37:01;;;;;;;7.43;6.07;;;;;;;23.84;100.00;99031.09;4785403;29;20043;-92
2023/08/27 08:39:26;;;;;;;8.82;5.90;;;;;;;23.95;100.00;99026.44;4787426;29;20043;-91
2023/08/27 08:42:12;;;;;;;6.32;5.35;;;;;;;24.05;100.00;99030.53;4789408;29;20034;-90
2023/08/27 08:44:50;;;;;;;7.78;6.57;;;;;;;24.15;100.00;99031.16;4805712;29;20039;-90
2023/08/27 08:47:19;;;;;;;6.55;5.90;;;;;;;24.23;100.00;99034.75;4787467;29;20118;-90
2023/08/27 08:49:45;;;;;;;6.00;4.95;;;;;;;24.29;100.00;99040.22;4787522;29;20130;-91
2023/08/27 08:52:16;;;;;;;6.25;5.65;;;;;;;24.26;100.00;99029.94;4787580;29;20042;-91
2023/08/27 08:54:42;;;;;;;5.38;4.88;;;;;;;24.31;100.00;99022.28;4785721;29;20022;-89
2023/08/27 08:57:12;;;;;;;7.60;5.85;;;;;;;24.25;100.00;99004.34;4843005;29;20021;-89
2023/08/27 08:59:58;;;;;;;5.65;5.13;;;;;;;24.26;100.00;99019.28;4855595;29;20554;-91
2023/08/27 09:02:46;;;;;;;7.32;6.30;;;;;;;24.14;100.00;99020.69;4801344;29;20509;-92
2023/08/27 09:06:26;;;;;;;9.85;6.70;;;;;;;23.99;100.00;99025.09;4779216;29;20514;-95
2023/08/27 09:09:48;;;;;;;7.43;5.82;;;;;;;23.96;100.00;99028.09;4705229;30;20154;-93
2023/08/27 09:13:08;;;;;;;6.68;6.07;;;;;;;23.98;100.00;99034.06;4679265;30;20048;-92
2023/08/27 09:15:54;;;;;;;7.05;6.38;;;;;;;23.99;100.00;99033.06;4645778;30;20042;-91
2023/08/27 09:18:19;;;;;;;8.70;6.32;;;;;;;24.02;100.00;99030.91;4646376;30;20042;-90
2023/08/27 09:20:45;;;;;;;8.18;6.07;;;;;;;23.97;100.00;99005.78;4644684;30;20092;-90
2023/08/27 09:23:12;;;;;;;8.25;6.18;;;;;;;24.15;100.00;99017.84;4643920;30;20500;-91
2023/08/27 09:25:38;;;;;;;6.53;5.88;;;;;;;24.25;100.00;99009.66;4643772;30;20082;-91
2023/08/27 09:28:04;;;;;;;9.05;6.07;;;;;;;24.23;100.00;99013.47;4644620;30;20409;-92
2023/08/27 09:30:30;;;;;;;7.07;5.75;;;;;;;24.30;100.00;99027.75;4644757;30;20050;-91
2023/08/27 09:32:56;;;;;;;5.72;5.07;;;;;;;24.15;100.00;99011.72;4643092;30;20043;-92
2023/08/27 09:35:21;;;;;;;5.93;5.40;;;;;;;24.11;100.00;99021.88;4636953;30;20039;-90
2023/08/27 09:37:47;;;;;;;6.10;5.50;;;;;;;23.96;100.00;99022.75;4628239;30;20055;-90
2023/08/27 09:40:14;;;;;;;6.18;5.57;;;;;;;23.70;100.00;98999.09;4681917;30;20052;-89
2023/08/27 09:42:40;;;;;;;6.28;5.10;;;;;;;23.61;100.00;99011.56;4729945;30;20060;-90
2023/08/27 09:45:06;;;;;;;6.15;5.57;;;;;;;23.54;100.00;99015.88;4740727;30;20059;-89
2023/08/27 09:52:24;;;;;;;6.43;5.55;;;;;;;23.20;100.00;98997.50;4859612;29;20490;-89
2023/08/27 09:54:52;;;;;;;5.95;5.38;;;;;;;23.12;100.00;99001.81;4860631;29;20465;-89
2023/08/27 09:57:18;;;;;;;5.22;4.70;;;;;;;23.12;100.00;99001.00;4843680;29;20466;-90
2023/08/27 09:59:46;;;;;;;6.88;6.07;;;;;;;23.19;100.00;99017.94;4859549;29;20064;-91
2023/08/27 10:02:15;;;;;;;7.60;5.50;;;;;;;23.12;100.00;99019.59;4842865;29;20014;-90
2023/08/27 10:05:01;;;;;;;7.00;5.95;;;;;;;23.12;100.00;99028.38;4857877;29;20085;-90
2023/08/27 10:07:27;;;;;;;8.20;6.32;;;;;;;23.04;100.00;99016.94;4856616;29;20040;-92
2023/08/27 10:09:54;;;;;;;6.80;6.10;;;;;;;23.01;100.00;99026.09;4857958;29;20482;-90
2023/08/27 10:12:21;;;;;;;7.57;5.93;;;;;;;22.72;100.00;98985.91;4842062;29;20059;-88
2023/08/27 10:14:47;;;;;;;7.78;7.07;;;;;;;22.77;100.00;99008.28;4841558;29;20410;-90
2023/08/27 10:17:14;;;;;;;7.38;6.40;;;;;;;22.58;100.00;98995.31;4841877;29;20542;-90
2023/08/27 10:19:40;;;;;;;8.57;6.45;;;;;;;22.59;100.00;99005.78;4842208;29;20413;-89
2023/08/27 10:22:06;;;;;;;6.40;5.63;;;;;;;22.55;100.00;99007.09;4857600;29;20064;-89
2023/08/27 10:24:33;;;;;;;7.13;6.43;;;;;;;22.49;100.00;99017.53;4841959;29;20116;-89
2023/08/27 10:27:01;;;;;;;8.27;6.88;;;;;;;22.49;100.00;99018.34;4843271;29;20477;-90
2023/08/27 10:29:27;;;;;;;7.78;6.78;;;;;;;22.50;100.00;99029.81;4844695;29;20058;-89
2023/08/27 10:31:56;;;;;;;9.05;7.97;;;;;;;22.32;100.00;98998.09;4841427;29;20528;-88
2023/08/27 10:34:28;;;;;;;9.13;7.97;;;;;;;22.25;100.00;98995.28;4841241;29;20112;-90
2023/08/27 10:36:54;;;;;;;;;;;;;;;22.27;100.00;98997.75;4841423;29;20028;-90
2023/08/27 10:39:23;;;;;;;8.15;7.35;;;;;;;22.29;100.00;98996.63;4857683;29;19956;-90
2023/08/27 10:41:49;;;;;;;8.90;8.00;;;;;;;22.25;100.00;98978.50;4872921;29;20025;-89
2023/08/27 10:44:19;;;;;;;7.85;7.15;;;;;;;22.28;100.00;98975.53;4842238;29;20066;-88
2023/08/27 10:47:14;;;;;;;8.13;7.33;;;;;;;22.37;100.00;98986.00;4857646;29;20021;-88
2023/08/27 10:49:44;;;;;;;9.30;8.00;;;;;;;22.21;100.00;98945.38;4856244;29;20070;-88
2023/08/27 10:52:17;;;;;;;9.15;8.35;;;;;;;22.30;100.00;98957.66;4841087;29;20033;-87
2023/08/27 10:54:42;;;;;;;9.95;8.55;;;;;;;22.33;100.00;98965.25;4856173;29;20037;-88
2023/08/27 10:57:20;;;;;;;8.90;7.93;;;;;;;22.38;100.00;98982.38;4840893;29;20162;-88
2023/08/27 10:59:46;;;;;;;11.68;7.70;;;;;;;22.28;100.00;98951.66;4856533;29;20042;-88
2023/08/27 11:02:11;;;;;;;10.20;9.00;;;;;;;22.36;100.00;98967.59;4840839;29;20040;-88
2023/08/27 11:04:47;;;;;;;10.43;9.20;;;;;;;22.06;100.00;98934.50;4855320;29;20133;-88
2023/08/27 11:07:19;;;;;;;10.88;9.50;;;;;;;22.14;100.00;98961.91;4856080;29;20029;-88
2023/08/27 11:09:48;;;;;;;10.50;9.15;;;;;;;22.25;100.00;98981.16;4840506;29;20729;-88
2023/08/27 11:12:28;;;;;;;9.50;8.50;;;;;;;22.10;100.00;98957.06;4840740;29;20065;-88
2023/08/27 11:15:08;;;;;;;8.40;7.70;;;;;;;22.19;100.00;98965.91;4856340;29;20443;-88
2023/08/27 11:17:35;;;;;;;9.30;8.40;;;;;;;22.30;100.00;98978.88;4819681;29;20518;-88
2023/08/27 11:20:27;;;;;;;10.63;8.82;;;;;;;22.40;100.00;98971.59;4820205;29;20046;-88
2023/08/27 11:23:02;;;;;;;9.38;8.20;;;;;;;22.45;100.00;98963.94;4804467;29;20026;-88
2023/08/27 11:25:31;;;;;;;12.95;11.50;;;;;;;22.47;100.00;98969.13;4819956;29;20038;-88
2023/08/27 11:28:00;;;;;;;10.73;9.70;;;;;;;22.42;100.00;98959.81;4821989;29;20038;-88
2023/08/27 11:30:26;;;;;;;11.05;9.45;;;;;;;22.54;100.00;98960.31;4786979;29;20134;-88